Time;durP1;ratioP1;P1;durP2;ratioP2;P2;SDS_P1;SDS_P2;PMS_P1;PMS_P2;Temp;Humidity;BMP_temperature;BMP_pressure;BME280_temperature;BME280_humidity;BME280_pressure;Samples;Min_cycle;Max_cycle;Signal;HPM_P1;HPM_P2
2021/07/04 00:11:15;;;;;;;9.68;6.92;;;;;;;17.13;69.60;100328.81;1800831;78;22278;-73
2021/07/04 00:13:41;;;;;;;12.23;6.42;;;;;;;17.11;69.70;100333.06;1759602;80;21059;-73
2021/07/04 00:16:07;;;;;;;11.33;7.20;;;;;;;17.12;69.77;100330.68;1759560;80;21175;-74
2021/07/04 00:18:34;;;;;;;10.45;6.83;;;;;;;17.11;69.87;100332.23;1761233;80;20907;-74
2021/07/04 00:21:03;;;;;;;11.38;7.20;;;;;;;17.09;69.96;100329.77;1759332;80;20991;-74
2021/07/04 00:23:29;;;;;;;10.08;7.10;;;;;;;17.05;70.01;100328.53;1759878;80;21066;-74
2021/07/04 00:25:55;;;;;;;9.55;7.42;;;;;;;17.01;70.09;100327.81;1759622;81;20994;-74
2021/07/04 00:28:23;;;;;;;10.18;7.12;;;;;;;17.01;70.17;100325.13;1763024;80;21014;-74
2021/07/04 00:30:50;;;;;;;11.35;6.60;;;;;;;16.92;70.25;100328.59;1775262;80;20975;-73
2021/07/04 00:33:16;;;;;;;12.70;6.50;;;;;;;16.85;70.32;100322.40;1760857;80;21062;-74
2021/07/04 00:35:42;;;;;;;9.75;6.03;;;;;;;16.80;70.42;100324.89;1759814;80;20996;-74
2021/07/04 00:38:08;;;;;;;9.60;6.08;;;;;;;16.78;70.50;100313.52;1760596;80;21065;-73
2021/07/04 00:40:36;;;;;;;8.03;5.60;;;;;;;16.80;70.55;100318.16;1759409;80;21128;-74
2021/07/04 00:43:03;;;;;;;11.18;6.45;;;;;;;16.85;70.61;100318.36;1761617;80;21252;-74
2021/07/04 00:45:29;;;;;;;10.15;6.80;;;;;;;16.89;70.71;100316.35;1784611;80;21049;-74
2021/07/04 00:47:56;;;;;;;8.38;6.33;;;;;;;16.93;70.76;100316.75;1786315;80;21076;-74
2021/07/04 00:50:27;;;;;;;8.05;6.42;;;;;;;16.95;70.82;100316.88;1788375;80;21013;-73
2021/07/04 00:52:55;;;;;;;11.78;6.67;;;;;;;16.98;70.86;100316.95;1788683;80;21283;-73
2021/07/04 00:55:21;;;;;;;8.63;6.50;;;;;;;16.98;70.86;100316.95;1783653;80;21053;-74
2021/07/04 00:57:47;;;;;;;10.10;7.08;;;;;;;16.96;70.90;100313.62;1788152;80;21684;-74
2021/07/04 01:00:15;;;;;;;7.87;6.22;;;;;;;16.92;70.92;100317.81;1786335;80;21660;-73
2021/07/04 01:02:42;;;;;;;8.48;6.65;;;;;;;16.86;70.95;100314.60;1785535;80;21078;-73
2021/07/04 01:05:15;;;;;;;10.58;6.97;;;;;;;16.84;70.98;100309.96;1788107;80;21024;-73
2021/07/04 01:07:41;;;;;;;14.65;7.20;;;;;;;16.82;70.98;100313.37;1777126;80;21010;-73
2021/07/04 01:10:08;;;;;;;9.30;6.05;;;;;;;16.82;71.01;100309.33;1704988;81;21034;-73
2021/07/04 01:12:34;;;;;;;9.33;6.85;;;;;;;16.80;71.03;100305.52;1756889;81;21025;-73
2021/07/04 01:15:01;;;;;;;10.20;7.08;;;;;;;16.80;71.05;100306.03;1754694;80;21093;-73
2021/07/04 01:17:27;;;;;;;11.28;7.33;;;;;;;16.79;71.06;100301.67;1756804;81;21087;-73
2021/07/04 01:19:53;;;;;;;10.05;6.75;;;;;;;16.81;71.10;100300.96;1756684;81;21499;-73
2021/07/04 01:22:19;;;;;;;12.07;7.30;;;;;;;16.83;71.14;100302.91;1756775;81;21514;-73
2021/07/04 01:24:45;;;;;;;11.40;8.93;;;;;;;16.80;71.14;100306.86;1756432;81;21530;-73
2021/07/04 01:27:11;;;;;;;11.83;7.05;;;;;;;16.78;71.19;100300.05;1714989;82;21011;-73
2021/07/04 01:29:37;;;;;;;9.65;7.33;;;;;;;16.77;71.17;100297.03;1729333;81;21072;-73
2021/07/04 01:32:04;;;;;;;9.78;7.17;;;;;;;16.77;71.19;100294.34;1729478;81;20983;-73
2021/07/04 01:34:30;;;;;;;11.38;8.15;;;;;;;16.80;71.17;100297.95;1729105;81;21479;-73
2021/07/04 01:36:56;;;;;;;12.68;7.20;;;;;;;16.81;71.15;100291.53;1738975;81;21133;-73
2021/07/04 01:39:22;;;;;;;10.50;7.60;;;;;;;16.83;71.16;100298.36;1756639;81;21061;-73
2021/07/04 01:41:49;;;;;;;9.05;7.30;;;;;;;16.86;71.19;100294.40;1756497;81;21672;-73
2021/07/04 01:44:15;;;;;;;11.43;6.78;;;;;;;16.90;71.23;100291.59;1755865;81;21053;-74
2021/07/04 01:46:41;;;;;;;10.72;6.85;;;;;;;16.92;71.28;100294.92;1756127;81;20991;-73
2021/07/04 01:49:07;;;;;;;12.65;7.05;;;;;;;16.93;71.33;100293.86;1754423;81;21573;-73
2021/07/04 01:51:33;;;;;;;10.93;7.20;;;;;;;16.92;71.40;100288.19;1756397;81;21494;-74
2021/07/04 01:53:59;;;;;;;11.20;7.47;;;;;;;16.92;71.45;100290.33;1754218;81;21878;-74
2021/07/04 01:56:25;;;;;;;12.25;8.28;;;;;;;16.86;71.45;100286.32;1756015;81;21009;-74
2021/07/04 01:58:51;;;;;;;8.68;6.92;;;;;;;16.85;71.50;100289.53;1745460;81;21171;-73
2021/07/04 02:01:20;;;;;;;12.07;7.17;;;;;;;16.80;71.48;100281.80;1728587;81;21018;-73
2021/07/04 02:03:46;;;;;;;10.45;6.80;;;;;;;16.76;71.50;100285.95;1745792;81;21026;-73
2021/07/04 02:06:12;;;;;;;12.30;7.60;;;;;;;16.73;71.55;100291.77;1756420;80;21240;-73
2021/07/04 02:08:38;;;;;;;15.10;6.78;;;;;;;16.70;71.56;100294.88;1755725;80;21073;-73
2021/07/04 02:11:05;;;;;;;10.03;6.50;;;;;;;16.70;71.57;100297.58;1756422;81;21081;-73
2021/07/04 02:13:31;;;;;;;11.70;8.03;;;;;;;16.72;71.63;100295.48;1758738;81;21101;-73
2021/07/04 02:15:57;;;;;;;12.15;7.78;;;;;;;16.72;71.65;100298.18;1759278;81;21109;-73
2021/07/04 02:18:23;;;;;;;13.20;7.95;;;;;;;16.67;71.70;100299.35;1758465;81;21146;-73
2021/07/04 02:20:53;;;;;;;11.05;6.95;;;;;;;16.69;71.80;100295.91;1759539;81;21006;-73
2021/07/04 02:23:31;;;;;;;11.80;7.25;;;;;;;16.70;71.85;100294.37;1759408;81;21628;-74
2021/07/04 02:25:57;;;;;;;11.38;7.25;;;;;;;16.72;71.90;100302.22;1759333;81;21014;-74
2021/07/04 02:28:25;;;;;;;11.50;7.75;;;;;;;16.71;71.91;100299.24;1759181;81;21025;-74
2021/07/04 02:30:52;;;;;;;11.10;8.28;;;;;;;16.73;71.90;100300.67;1754651;81;21129;-73
2021/07/04 02:33:19;;;;;;;10.80;7.33;;;;;;;16.75;71.89;100303.97;1736412;81;21511;-73
2021/07/04 02:35:48;;;;;;;14.03;7.83;;;;;;;16.76;71.89;100307.49;1736779;82;21007;-73
2021/07/04 02:38:14;;;;;;;14.40;8.53;;;;;;;16.76;71.89;100303.45;1736403;81;21026;-73
2021/07/04 02:40:41;;;;;;;10.20;7.58;;;;;;;16.76;71.90;100308.33;1736846;81;21086;-73
2021/07/04 02:43:08;;;;;;;11.33;7.00;;;;;;;16.77;71.91;100307.30;1736639;81;21046;-74
2021/07/04 02:45:35;;;;;;;11.53;6.55;;;;;;;16.80;71.98;100308.73;1736547;81;21565;-73
2021/07/04 02:48:01;;;;;;;8.80;6.80;;;;;;;16.77;72.01;100309.98;1736672;82;21058;-73
2021/07/04 02:50:27;;;;;;;9.30;7.05;;;;;;;16.78;72.11;100310.82;1736477;82;21033;-73
2021/07/04 02:52:54;;;;;;;10.50;7.70;;;;;;;16.75;72.15;100306.66;1737360;81;21515;-73
2021/07/04 02:55:23;;;;;;;10.13;6.72;;;;;;;16.69;72.19;100310.73;1737495;81;21781;-74
2021/07/04 02:57:49;;;;;;;12.82;7.15;;;;;;;16.62;72.21;100309.92;1737054;81;21077;-73
2021/07/04 03:00:18;;;;;;;12.70;7.45;;;;;;;16.56;72.25;100312.11;1736288;81;21502;-73
2021/07/04 03:02:45;;;;;;;8.93;6.75;;;;;;;16.49;72.27;100310.24;1738270;81;21582;-73
2021/07/04 03:05:11;;;;;;;8.13;6.58;;;;;;;16.48;72.32;100311.27;1758136;81;21544;-74
2021/07/04 03:07:38;;;;;;;10.25;6.60;;;;;;;16.47;72.32;100316.34;1759155;80;21779;-74
2021/07/04 03:10:08;;;;;;;8.58;6.42;;;;;;;16.47;72.33;100317.68;1759001;80;21351;-74
2021/07/04 03:12:34;;;;;;;10.48;6.40;;;;;;;16.49;72.34;100312.94;1741746;81;21038;-73
2021/07/04 03:15:00;;;;;;;7.53;6.08;;;;;;;16.54;72.40;100312.83;1749968;81;21065;-73
2021/07/04 03:17:26;;;;;;;9.65;6.45;;;;;;;16.60;72.48;100312.00;1756276;81;21050;-73
2021/07/04 03:19:53;;;;;;;10.45;7.40;;;;;;;16.64;72.51;100311.35;1756597;81;21129;-73
2021/07/04 03:22:20;;;;;;;9.20;6.55;;;;;;;16.68;72.53;100313.10;1756483;80;21570;-73
2021/07/04 03:24:46;;;;;;;9.73;7.42;;;;;;;16.76;72.57;100311.53;1756307;81;21605;-73
2021/07/04 03:27:12;;;;;;;10.63;7.85;;;;;;;16.82;72.58;100310.67;1756467;81;21013;-73
2021/07/04 03:29:38;;;;;;;9.35;6.75;;;;;;;16.84;72.55;100308.61;1759773;80;21057;-73
2021/07/04 03:32:05;;;;;;;9.30;7.25;;;;;;;16.82;72.57;100311.51;1761237;81;21802;-73
2021/07/04 03:34:31;;;;;;;10.72;7.65;;;;;;;16.80;72.57;100314.11;1738504;81;20987;-73
2021/07/04 03:36:57;;;;;;;9.13;6.20;;;;;;;16.76;72.58;100315.05;1746577;81;21057;-73
2021/07/04 03:39:24;;;;;;;10.05;6.45;;;;;;;16.73;72.57;100316.00;1756019;80;21361;-73
2021/07/04 03:41:50;;;;;;;8.85;6.70;;;;;;;16.76;72.58;100318.27;1755721;81;21097;-73
2021/07/04 03:44:16;;;;;;;10.20;6.65;;;;;;;16.81;72.59;100323.34;1756114;81;21099;-73
2021/07/04 03:46:42;;;;;;;9.15;6.83;;;;;;;16.88;72.60;100317.41;1756289;81;21006;-73
2021/07/04 03:49:08;;;;;;;11.75;7.97;;;;;;;16.97;72.63;100315.29;1756262;81;21097;-73
2021/07/04 03:51:35;;;;;;;12.80;7.05;;;;;;;17.07;72.63;100314.31;1717751;81;21110;-73
2021/07/04 03:54:01;;;;;;;10.80;6.80;;;;;;;17.13;72.65;100314.00;1730504;81;21603;-73
2021/07/04 03:56:27;;;;;;;11.48;7.55;;;;;;;17.23;72.67;100320.58;1728623;81;21664;-73
2021/07/04 03:58:53;;;;;;;12.20;7.25;;;;;;;17.38;72.65;100321.09;1729245;81;21467;-73
2021/07/04 04:01:20;;;;;;;11.75;7.55;;;;;;;17.52;72.62;100321.05;1739500;81;21093;-73
2021/07/04 04:03:47;;;;;;;9.63;7.72;;;;;;;17.62;72.51;100318.73;1730950;81;21015;-73
2021/07/04 04:06:13;;;;;;;9.10;7.17;;;;;;;17.70;72.46;100309.83;1728714;81;21078;-73
2021/07/04 04:08:41;;;;;;;9.55;7.10;;;;;;;17.80;72.40;100317.47;1734268;81;21705;-73
2021/07/04 04:11:07;;;;;;;9.38;6.65;;;;;;;17.83;72.32;100308.93;1742617;81;21093;-73
2021/07/04 04:13:33;;;;;;;11.15;6.35;;;;;;;17.87;72.22;100315.55;1752654;81;21013;-73
2021/07/04 04:15:59;;;;;;;10.23;6.60;;;;;;;17.95;72.14;100315.25;1748395;81;21042;-73
2021/07/04 04:18:25;;;;;;;12.60;5.90;;;;;;;18.02;72.07;100314.67;1728452;83;21019;-74
2021/07/04 04:20:51;;;;;;;9.40;7.28;;;;;;;17.99;71.99;100317.81;1728621;81;21131;-73
2021/07/04 04:23:17;;;;;;;11.25;7.53;;;;;;;17.96;71.99;100312.86;1728776;81;21007;-73
2021/07/04 04:25:43;;;;;;;8.80;6.95;;;;;;;18.02;71.99;100311.97;1729768;81;21046;-73
2021/07/04 04:28:09;;;;;;;9.43;6.87;;;;;;;18.16;71.90;100313.52;1728307;82;20995;-73
2021/07/04 04:30:35;;;;;;;7.60;6.22;;;;;;;18.53;71.85;100312.27;1730065;81;21121;-73
2021/07/04 04:33:02;;;;;;;10.65;7.20;;;;;;;19.30;71.43;100312.90;1730739;81;21105;-73
2021/07/04 04:35:28;;;;;;;9.20;7.35;;;;;;;19.75;70.88;100306.02;1728430;81;21066;-73
2021/07/04 04:37:55;;;;;;;9.30;6.90;;;;;;;19.98;70.62;100306.61;1728525;82;21042;-73
2021/07/04 04:40:21;;;;;;;9.73;7.33;;;;;;;20.21;70.50;100310.68;1730529;81;21078;-73
2021/07/04 04:42:47;;;;;;;9.28;7.37;;;;;;;20.19;70.36;100313.34;1726838;82;21065;-73
2021/07/04 04:45:13;;;;;;;7.95;6.47;;;;;;;20.10;70.23;100310.13;1714034;81;21152;-73
2021/07/04 04:47:39;;;;;;;8.80;6.12;;;;;;;20.04;70.00;100308.37;1717588;81;21066;-73
2021/07/04 04:50:07;;;;;;;8.20;6.42;;;;;;;19.99;69.75;100312.30;1728545;81;21044;-74
2021/07/04 04:52:33;;;;;;;11.33;7.70;;;;;;;19.92;69.49;100306.16;1726042;81;21474;-73
2021/07/04 04:54:59;;;;;;;11.10;6.40;;;;;;;19.81;69.27;100305.61;1751477;81;21108;-73
2021/07/04 04:57:25;;;;;;;8.55;7.12;;;;;;;19.69;68.97;100310.19;1744026;81;21105;-73
2021/07/04 04:59:51;;;;;;;9.48;6.85;;;;;;;19.63;68.84;100304.35;1744169;81;21053;-73
2021/07/04 05:02:17;;;;;;;10.50;6.03;;;;;;;19.70;68.70;100307.78;1735723;81;21033;-74
2021/07/04 05:04:43;;;;;;;9.78;6.47;;;;;;;19.79;68.54;100303.67;1754289;81;21029;-73
2021/07/04 05:07:09;;;;;;;12.35;7.03;;;;;;;19.91;68.39;100304.53;1756555;81;21506;-73
2021/07/04 05:09:35;;;;;;;8.78;5.83;;;;;;;19.91;68.17;100301.83;1753484;80;21057;-73
2021/07/04 05:12:02;;;;;;;8.13;6.03;;;;;;;19.86;67.94;100305.75;1754654;81;21006;-73
2021/07/04 05:14:28;;;;;;;9.08;6.05;;;;;;;19.90;67.86;100308.30;1736278;81;21518;-73
2021/07/04 05:16:54;;;;;;;7.03;5.58;;;;;;;20.02;67.75;100310.47;1743414;81;20963;-73
2021/07/04 05:19:20;;;;;;;6.90;5.40;;;;;;;20.00;67.53;100313.95;1745336;81;21041;-73
2021/07/04 05:21:46;;;;;;;8.75;5.62;;;;;;;19.95;67.40;100320.58;1728712;81;21693;-73
2021/07/04 05:24:12;;;;;;;7.67;5.67;;;;;;;19.88;67.24;100307.68;1728695;81;20999;-73
2021/07/04 05:26:39;;;;;;;7.62;6.10;;;;;;;19.85;67.00;100313.56;1728517;83;20998;-73
2021/07/04 05:29:05;;;;;;;7.05;5.60;;;;;;;19.87;66.77;100320.94;1732443;81;21385;-73
2021/07/04 05:31:32;;;;;;;8.00;4.87;;;;;;;19.86;66.54;100316.05;1753146;81;21026;-73
2021/07/04 05:33:58;;;;;;;9.98;5.05;;;;;;;19.91;66.38;100312.66;1728901;81;21121;-73
2021/07/04 05:36:24;;;;;;;7.50;5.35;;;;;;;20.00;66.19;100318.02;1728346;81;21046;-73
2021/07/04 05:38:51;;;;;;;8.93;5.45;;;;;;;20.17;66.00;100316.78;1728907;81;21136;-73
2021/07/04 05:41:17;;;;;;;8.68;5.33;;;;;;;20.40;65.86;100319.03;1728553;83;21046;-73
2021/07/04 05:43:45;;;;;;;6.72;4.80;;;;;;;20.56;65.60;100323.42;1728851;81;21038;-73
2021/07/04 05:46:12;;;;;;;;;;;;;;;20.61;65.40;100319.48;1725204;81;21991;-73
2021/07/04 05:48:41;;;;;;;6.75;5.28;;;;;;;20.60;65.12;100321.89;1730290;81;20189;-73
2021/07/04 05:51:08;;;;;;;6.83;5.50;;;;;;;20.61;64.90;100315.41;1729105;81;21107;-73
2021/07/04 05:53:34;;;;;;;6.75;5.08;;;;;;;20.80;64.77;100314.19;1731999;81;21003;-74
2021/07/04 05:56:00;;;;;;;8.73;5.37;;;;;;;21.02;64.59;100313.03;1728965;81;21605;-73
2021/07/04 05:58:26;;;;;;;10.78;5.05;;;;;;;21.03;64.38;100314.16;1734483;81;21054;-73
2021/07/04 06:00:52;;;;;;;5.58;4.72;;;;;;;21.17;64.16;100309.31;1747253;82;21047;-73
2021/07/04 06:03:18;;;;;;;9.65;4.97;;;;;;;21.25;63.91;100315.16;1725762;81;20989;-74
2021/07/04 06:05:44;;;;;;;5.70;4.22;;;;;;;21.20;63.64;100319.14;1755782;81;21376;-73
2021/07/04 06:08:10;;;;;;;6.95;4.80;;;;;;;21.23;63.45;100313.76;1736153;81;21197;-74
2021/07/04 06:10:36;;;;;;;8.13;4.75;;;;;;;21.46;63.33;100309.61;1728383;83;21899;-74
2021/07/04 06:13:03;;;;;;;7.33;4.80;;;;;;;21.52;63.03;100310.52;1732943;82;21002;-74
2021/07/04 06:15:29;;;;;;;4.92;4.15;;;;;;;21.55;62.77;100314.09;1720247;82;21026;-73
2021/07/04 06:17:55;;;;;;;4.50;4.10;;;;;;;21.52;62.50;100310.52;1699035;84;21124;-74
2021/07/04 06:20:22;;;;;;;5.00;4.50;;;;;;;21.69;62.38;100305.41;1699217;84;21039;-73
2021/07/04 06:22:49;;;;;;;5.90;3.90;;;;;;;21.85;62.14;100307.30;1699292;83;21987;-73
2021/07/04 06:25:17;;;;;;;5.97;4.40;;;;;;;22.17;61.88;100311.66;1699117;84;21018;-73
2021/07/04 06:27:43;;;;;;;5.95;4.60;;;;;;;22.13;61.32;100307.79;1698962;84;21423;-74
2021/07/04 06:30:11;;;;;;;7.17;4.58;;;;;;;22.23;61.08;100312.05;1702263;81;21144;-74
2021/07/04 06:32:38;;;;;;;6.37;4.45;;;;;;;22.28;60.82;100306.67;1715617;81;21022;-74
2021/07/04 06:35:06;;;;;;;10.72;4.62;;;;;;;22.47;60.60;100303.69;1733142;82;22391;-73
2021/07/04 06:37:32;;;;;;;6.62;4.47;;;;;;;22.76;60.39;100309.31;1733759;82;21023;-73
2021/07/04 06:39:58;;;;;;;11.90;7.28;;;;;;;23.05;60.05;100303.95;1733087;81;21472;-74
2021/07/04 06:42:24;;;;;;;8.25;5.92;;;;;;;23.43;59.78;100310.41;1736842;81;21015;-74
2021/07/04 06:44:50;;;;;;;6.53;4.70;;;;;;;23.43;59.32;100303.06;1733260;81;21126;-74
2021/07/04 06:47:17;;;;;;;7.42;5.80;;;;;;;23.23;59.06;100309.06;1732441;82;21958;-74
2021/07/04 06:49:43;;;;;;;6.28;5.33;;;;;;;23.08;58.94;100305.36;1727397;81;21452;-74
2021/07/04 06:52:09;;;;;;;6.67;4.70;;;;;;;23.07;58.69;100303.70;1732529;82;20964;-74
2021/07/04 06:54:35;;;;;;;5.90;4.85;;;;;;;22.96;58.46;100310.92;1729703;82;21136;-74
2021/07/04 06:59:47;;;;;;;8.75;5.87;;;;;;;22.93;58.09;100301.91;1728840;82;21612;-73
2021/07/04 07:02:14;;;;;;;5.97;4.92;;;;;;;22.96;57.89;100299.21;1730407;81;21008;-74
2021/07/04 07:04:40;;;;;;;6.47;4.80;;;;;;;22.95;57.69;100305.19;1727939;82;21035;-73
2021/07/04 07:07:06;;;;;;;7.25;4.55;;;;;;;22.73;57.50;100301.09;1735722;82;21038;-74
2021/07/04 07:09:32;;;;;;;4.97;4.55;;;;;;;22.51;57.45;100304.84;1724670;81;21060;-73
2021/07/04 07:11:58;;;;;;;5.90;4.28;;;;;;;22.41;57.32;100288.66;1729551;81;21556;-74
2021/07/04 07:14:24;;;;;;;6.28;4.30;;;;;;;22.40;57.32;100295.72;1730109;81;21175;-73
2021/07/04 07:16:50;;;;;;;9.03;5.03;;;;;;;22.36;57.11;100294.03;1733204;82;21485;-74
2021/07/04 07:19:16;;;;;;;11.75;4.83;;;;;;;22.45;57.20;100295.77;1725111;82;21413;-73
2021/07/04 07:21:42;;;;;;;7.37;4.87;;;;;;;22.73;57.14;100293.50;1726211;82;21007;-73
2021/07/04 07:24:09;;;;;;;6.10;4.22;;;;;;;23.00;57.05;100293.02;1717906;82;21716;-74
2021/07/04 07:26:35;;;;;;;9.40;4.92;;;;;;;23.25;57.00;100293.32;1716790;81;22215;-74
2021/07/04 07:29:02;;;;;;;9.85;5.58;;;;;;;23.51;56.82;100293.05;1736179;81;21418;-74
2021/07/04 07:31:31;;;;;;;9.35;4.53;;;;;;;23.67;56.58;100289.95;1717602;81;21072;-74
2021/07/04 07:33:56;;;;;;;6.50;4.15;;;;;;;;;;1725714;81;21466;-74
2021/07/04 07:36:22;;;;;;;4.83;4.30;;;;;;;23.73;56.31;100284.83;1736096;81;21821;-74
2021/07/04 07:38:48;;;;;;;5.92;4.20;;;;;;;23.73;56.17;100282.93;1742824;81;21471;-74
2021/07/04 07:41:14;;;;;;;6.95;5.08;;;;;;;23.50;55.92;100283.27;1727151;82;20958;-74
2021/07/04 07:43:43;;;;;;;8.90;5.15;;;;;;;23.31;55.77;100284.13;1742732;81;21009;-74
2021/07/04 07:46:08;;;;;;;7.22;4.92;;;;;;;23.39;55.80;100284.20;1736292;81;21017;-74
2021/07/04 07:48:34;;;;;;;9.03;4.70;;;;;;;23.71;55.67;100277.47;1728328;81;21899;-74
2021/07/04 07:51:00;;;;;;;7.75;4.45;;;;;;;24.22;55.48;100278.17;1747104;81;21515;-75
2021/07/04 07:53:28;;;;;;;10.78;5.42;;;;;;;24.71;55.21;100274.63;1751029;81;22226;-76
2021/07/04 07:55:54;;;;;;;10.03;5.83;;;;;;;24.79;54.88;100270.58;1738798;81;21027;-75
2021/07/04 07:58:21;;;;;;;11.50;6.58;;;;;;;24.67;54.68;100274.05;1730995;81;21081;-75
2021/07/04 08:00:47;;;;;;;6.70;5.60;;;;;;;24.55;54.52;100268.01;1727701;82;21938;-75
2021/07/04 08:03:13;;;;;;;8.25;5.08;;;;;;;24.27;54.53;100263.22;1727888;81;21428;-75
2021/07/04 08:05:39;;;;;;;8.63;6.37;;;;;;;24.05;54.54;100259.77;1729443;81;21209;-75
2021/07/04 08:08:06;;;;;;;9.18;5.90;;;;;;;24.27;54.65;100254.22;1726015;81;21006;-75
2021/07/04 08:10:33;;;;;;;5.72;5.22;;;;;;;24.81;54.54;100253.39;1723046;81;21388;-76
2021/07/04 08:13:02;;;;;;;6.67;5.35;;;;;;;25.20;54.12;100253.28;1726111;82;22078;-75
2021/07/04 08:15:28;;;;;;;8.05;5.97;;;;;;;25.37;54.00;100252.23;1729143;83;21013;-75
2021/07/04 08:17:54;;;;;;;7.03;5.50;;;;;;;25.24;53.48;100258.48;1729463;82;21195;-76
2021/07/04 08:20:20;;;;;;;6.17;5.28;;;;;;;25.02;53.35;100261.95;1730044;82;21059;-76
2021/07/04 08:22:46;;;;;;;11.15;5.87;;;;;;;24.93;53.15;100259.48;1746734;81;21086;-76
2021/07/04 08:25:14;;;;;;;8.08;5.67;;;;;;;24.85;53.00;100260.81;1732598;82;21966;-76
2021/07/04 08:27:40;;;;;;;6.45;5.15;;;;;;;24.79;52.95;100251.48;1713109;82;20942;-76
2021/07/04 08:30:08;;;;;;;6.20;5.58;;;;;;;24.77;52.68;100254.46;1732787;82;20994;-75
2021/07/04 08:32:34;;;;;;;7.20;6.40;;;;;;;24.79;52.46;100255.03;1732743;82;21006;-75
2021/07/04 08:35:01;;;;;;;8.38;7.50;;;;;;;24.90;52.30;100253.20;1721193;82;21017;-75
2021/07/04 08:37:27;;;;;;;7.40;6.35;;;;;;;25.06;52.24;100252.14;1720800;82;21955;-75
2021/07/04 08:39:53;;;;;;;10.58;5.58;;;;;;;25.09;51.93;100248.88;1725471;82;21011;-75
2021/07/04 08:42:19;;;;;;;7.42;6.20;;;;;;;24.93;51.70;100255.39;1727757;82;21081;-75
2021/07/04 08:44:52;;;;;;;10.25;6.08;;;;;;;24.89;51.54;100247.99;1724001;82;21124;-75
2021/07/04 08:47:19;;;;;;;10.98;7.05;;;;;;;24.81;51.41;100246.56;1722762;82;21026;-75
2021/07/04 08:49:48;;;;;;;9.45;6.80;;;;;;;24.75;51.31;100246.28;1724646;82;22782;-75
2021/07/04 08:52:14;;;;;;;9.83;5.97;;;;;;;24.73;51.44;100243.83;1702296;83;21003;-75
2021/07/04 08:54:40;;;;;;;8.55;5.90;;;;;;;24.83;51.48;100244.44;1719283;82;21439;-75
2021/07/04 08:57:10;;;;;;;7.85;5.90;;;;;;;25.13;51.44;100240.43;1732180;82;20979;-75
2021/07/04 08:59:39;;;;;;;7.00;5.80;;;;;;;25.30;51.19;100227.89;1731948;81;21065;-75
2021/07/04 09:02:06;;;;;;;6.05;5.45;;;;;;;25.22;50.97;100233.37;1732261;82;21726;-75
2021/07/04 09:04:32;;;;;;;9.48;5.80;;;;;;;25.17;50.84;100230.62;1724420;82;21014;-75
2021/07/04 09:07:00;;;;;;;6.03;5.42;;;;;;;25.28;50.70;100232.82;1725920;81;21411;-75
2021/07/04 09:09:31;;;;;;;7.65;5.35;;;;;;;25.54;50.42;100220.06;1732772;82;20982;-75
2021/07/04 09:12:11;;;;;;;5.87;4.90;;;;;;;25.68;50.19;100223.34;1726559;82;21066;-75
2021/07/04 09:14:47;;;;;;;5.58;4.42;;;;;;;25.89;49.82;100217.31;1712426;82;21920;-76
2021/07/04 09:17:17;;;;;;;8.05;5.40;;;;;;;26.07;49.41;100220.81;1702034;83;21022;-75
2021/07/04 09:19:57;;;;;;;7.78;5.20;;;;;;;25.70;49.19;100212.95;1711235;82;21006;-76
2021/07/04 09:22:35;;;;;;;6.12;5.40;;;;;;;25.48;48.98;100210.99;1731836;81;20930;-76
2021/07/04 09:25:17;;;;;;;7.08;5.65;;;;;;;25.07;49.08;100217.48;1732171;82;21424;-76
2021/07/04 09:28:04;;;;;;;8.40;5.85;;;;;;;24.86;49.22;100220.71;1732533;81;22225;-75
2021/07/04 09:30:52;;;;;;;6.15;4.97;;;;;;;24.85;49.29;100223.98;1732760;82;20937;-75
2021/07/04 09:33:24;;;;;;;6.62;5.65;;;;;;;24.84;49.21;100226.96;1720687;82;21067;-74
2021/07/04 09:36:05;;;;;;;10.38;5.17;;;;;;;24.81;49.05;100224.73;1702551;83;21084;-73
2021/07/04 09:38:34;;;;;;;9.63;6.62;;;;;;;24.79;48.96;100224.20;1729386;83;21442;-73
2021/07/04 09:41:00;;;;;;;8.90;6.60;;;;;;;24.82;48.85;100219.57;1729384;83;21930;-72
2021/07/04 09:43:27;;;;;;;11.75;8.50;;;;;;;24.82;48.91;100223.66;1731159;81;21364;-72
2021/07/04 09:46:01;;;;;;;7.08;5.37;;;;;;;24.72;48.96;100223.09;1732630;81;20999;-73
2021/07/04 09:48:37;;;;;;;6.12;5.50;;;;;;;24.78;49.02;100222.55;1732456;82;21682;-73
2021/07/04 09:51:20;;;;;;;8.13;5.08;;;;;;;24.70;48.83;100220.36;1731380;82;21082;-73
2021/07/04 09:53:51;;;;;;;6.45;5.60;;;;;;;24.57;48.66;100220.83;1731247;82;21880;-73
2021/07/04 09:56:24;;;;;;;7.50;6.67;;;;;;;24.60;48.56;100215.66;1728663;83;20986;-73
2021/07/04 09:58:54;;;;;;;8.93;5.70;;;;;;;24.54;48.53;100214.01;1728795;82;21446;-72
2021/07/04 10:01:46;;;;;;;7.03;6.33;;;;;;;24.46;48.54;100213.68;1733826;81;21605;-72
2021/07/04 10:04:27;;;;;;;10.38;6.58;;;;;;;24.32;48.72;100216.07;1730214;82;21029;-73
2021/07/04 10:06:53;;;;;;;7.92;6.50;;;;;;;24.19;48.94;100209.20;1729322;82;21750;-72
2021/07/04 10:09:20;;;;;;;8.48;6.90;;;;;;;24.05;49.04;100207.98;1729111;81;21013;-72
2021/07/04 10:11:47;;;;;;;7.78;6.15;;;;;;;23.94;49.16;100206.27;1729089;82;21021;-71
2021/07/04 10:14:13;;;;;;;7.15;5.72;;;;;;;23.86;49.39;100215.75;1719449;83;21399;-71
2021/07/04 10:16:41;;;;;;;10.13;6.50;;;;;;;23.88;49.55;100207.33;1723498;83;21933;-71
2021/07/04 10:19:07;;;;;;;10.40;6.75;;;;;;;23.80;49.64;100213.25;1725120;83;21853;-71
2021/07/04 10:21:34;;;;;;;18.57;10.68;;;;;;;23.72;49.79;100211.83;1724874;83;21039;-71
2021/07/04 10:24:00;;;;;;;15.30;9.23;;;;;;;23.65;50.04;100199.51;1725938;83;21069;-71
2021/07/04 10:26:26;;;;;;;10.90;6.78;;;;;;;23.61;50.24;100197.05;1726731;83;21631;-71
2021/07/04 10:28:58;;;;;;;14.03;9.38;;;;;;;23.58;50.41;100205.18;1726462;83;21792;-71
2021/07/04 10:31:24;;;;;;;7.92;7.03;;;;;;;23.48;50.59;100197.47;1725827;83;22401;-71
2021/07/04 10:34:08;;;;;;;12.95;7.85;;;;;;;23.49;50.88;100201.30;1724748;81;21025;-71
2021/07/04 10:36:58;;;;;;;7.85;7.08;;;;;;;23.48;51.10;100190.66;1725000;83;21063;-72
2021/07/04 10:39:28;;;;;;;7.53;6.70;;;;;;;23.37;51.36;100190.55;1717342;81;21002;-72
2021/07/04 10:41:59;;;;;;;9.08;7.30;;;;;;;23.29;51.67;100195.66;1725473;82;21146;-72
2021/07/04 10:44:44;;;;;;;8.83;7.30;;;;;;;23.25;51.92;100192.63;1739790;81;22220;-71
2021/07/04 10:47:20;;;;;;;8.50;6.95;;;;;;;23.22;52.14;100187.67;1724231;83;21028;-71
2021/07/04 10:49:49;;;;;;;10.20;7.72;;;;;;;23.21;52.37;100183.33;1726482;81;21046;-71
2021/07/04 10:52:24;;;;;;;10.25;8.30;;;;;;;23.20;52.57;100178.13;1728086;81;20994;-71
2021/07/04 10:54:53;;;;;;;8.68;7.80;;;;;;;23.20;52.67;100180.32;1729264;81;21058;-71
2021/07/04 10:57:35;;;;;;;10.25;6.90;;;;;;;23.23;52.78;100179.80;1727515;81;21824;-72
2021/07/04 11:00:06;;;;;;;8.80;7.75;;;;;;;23.32;52.86;100180.99;1747984;81;21054;-71
2021/07/04 11:02:50;;;;;;;8.90;6.87;;;;;;;23.36;52.93;100173.92;1709525;83;21011;-73
2021/07/04 11:05:38;;;;;;;8.85;7.33;;;;;;;23.51;53.11;100184.69;1726917;82;21480;-73
2021/07/04 11:08:27;;;;;;;10.75;8.53;;;;;;;23.59;53.11;100185.58;1711888;83;20937;-73
2021/07/04 11:11:06;;;;;;;13.00;7.87;;;;;;;23.65;52.97;100180.45;1707683;82;21533;-72
2021/07/04 11:13:43;;;;;;;11.25;7.42;;;;;;;23.75;52.87;100177.83;1722378;81;20994;-73
2021/07/04 11:16:17;;;;;;;8.70;6.80;;;;;;;23.92;52.83;100175.77;1714673;82;21049;-72
2021/07/04 11:18:52;;;;;;;7.22;6.37;;;;;;;24.03;52.78;100177.44;1728460;82;21011;-73
2021/07/04 11:21:21;;;;;;;8.90;6.85;;;;;;;24.15;52.70;100169.92;1733680;82;20939;-73
2021/07/04 11:23:49;;;;;;;7.28;5.85;;;;;;;24.29;52.53;100170.27;1730272;82;21668;-73
2021/07/04 11:26:16;;;;;;;9.68;5.97;;;;;;;24.33;52.38;100165.39;1705035;82;21065;-72
2021/07/04 11:28:48;;;;;;;10.90;6.17;;;;;;;24.36;52.16;100166.21;1730610;82;21070;-73
2021/07/04 11:31:20;;;;;;;8.05;6.33;;;;;;;24.39;51.93;100163.49;1730770;81;21025;-72
2021/07/04 11:33:54;;;;;;;6.25;5.25;;;;;;;24.41;51.74;100161.88;1730475;82;21011;-72
2021/07/04 11:36:28;;;;;;;9.30;6.20;;;;;;;24.46;51.52;100161.88;1729946;82;21914;-72
2021/07/04 11:39:08;;;;;;;9.70;6.67;;;;;;;24.44;51.27;100161.34;1729942;82;21053;-72